createdAt,value
2022-11-05T00:01:07.236Z,100
2022-11-05T00:06:08.920Z,100
2022-11-05T00:11:15.234Z,98.87532
2022-11-05T00:16:20.224Z,98.62526
2022-11-05T00:21:22.291Z,98.08965
2022-11-05T00:26:24.269Z,100
2022-11-05T00:31:26.353Z,96.99093
2022-11-05T00:36:28.392Z,98.28526
2022-11-05T00:41:30.190Z,96.18726
2022-11-05T00:46:32.905Z,95.88743
2022-11-05T00:51:34.674Z,96.64923
2022-11-05T00:56:36.771Z,97.58993
2022-11-05T01:01:39.127Z,96.90186
2022-11-05T01:06:41.003Z,97.44857
2022-11-05T01:11:42.950Z,98.80214
2022-11-05T01:16:45.459Z,97.98617
2022-11-05T01:21:47.263Z,96.32588
2022-11-05T01:26:48.852Z,96.64393
2022-11-05T01:31:50.763Z,97.33426
2022-11-05T01:36:53.133Z,95.8183
2022-11-05T01:41:55.187Z,97.24794
2022-11-05T01:46:57.361Z,95.91833
2022-11-05T01:51:59.343Z,98.31671
2022-11-05T01:57:01.027Z,98.09255
2022-11-05T02:02:03.239Z,98.74684
2022-11-05T02:07:05.472Z,97.86702
2022-11-05T02:12:07.483Z,100
2022-11-05T02:17:09.967Z,100
2022-11-05T02:22:11.949Z,100
2022-11-05T02:27:13.746Z,100
2022-11-05T02:32:15.811Z,100
2022-11-05T02:37:17.633Z,100
2022-11-05T02:42:19.497Z,100
2022-11-05T02:47:21.734Z,100
2022-11-05T02:52:23.919Z,100
2022-11-05T02:57:25.351Z,100
2022-11-05T03:02:27.796Z,100
2022-11-05T03:07:29.914Z,100
2022-11-05T03:12:31.932Z,100
2022-11-05T03:17:34.041Z,100
2022-11-05T03:22:35.881Z,100
2022-11-05T03:27:37.855Z,100
2022-11-05T03:32:40.041Z,100
2022-11-05T03:37:41.962Z,100
2022-11-05T03:42:43.840Z,100
2022-11-05T03:47:46.100Z,100
2022-11-05T03:52:47.807Z,100
2022-11-05T03:57:49.683Z,100
2022-11-05T04:02:52.385Z,100
2022-11-05T04:07:54.358Z,100
2022-11-05T04:12:56.387Z,100
2022-11-05T04:17:58.922Z,96.04847
2022-11-05T04:23:01.175Z,86.10634
2022-11-05T04:28:02.960Z,88.78691
2022-11-05T04:33:04.838Z,84.34198
2022-11-05T04:38:07.090Z,81.86419
2022-11-05T04:43:14.694Z,91.47037
2022-11-05T04:48:17.282Z,89.14216
2022-11-05T04:53:19.044Z,87.1712
2022-11-05T04:58:20.583Z,82.06164
2022-11-05T05:03:22.447Z,77.70835
2022-11-05T05:08:24.255Z,77.53906
2022-11-05T05:13:26.252Z,75.35553
2022-11-05T05:18:28.386Z,74.1337
2022-11-05T05:23:30.063Z,77.09016
2022-11-05T05:28:31.610Z,71.62368
2022-11-05T05:33:33.479Z,70.54208
2022-11-05T05:38:35.162Z,68.31961
2022-11-05T05:43:37.176Z,66.47753
2022-11-05T05:48:39.544Z,64.46335
2022-11-05T05:53:41.309Z,65.3977
2022-11-05T05:58:43.382Z,61.58939
2022-11-05T06:03:45.312Z,62.29958
2022-11-05T06:08:47.140Z,60.92617
2022-11-05T06:13:49.270Z,62.05654
2022-11-05T06:18:51.627Z,66.97856
2022-11-05T06:23:53.507Z,69.25651
2022-11-05T06:28:55.361Z,68.22641
2022-11-05T06:33:57.050Z,63.77622
2022-11-05T06:38:58.981Z,60.19898
2022-11-05T06:44:00.581Z,56.94201
2022-11-05T06:49:02.953Z,56.76995
2022-11-05T06:54:04.734Z,54.83577
2022-11-05T06:59:06.535Z,53.171
2022-11-05T07:04:08.769Z,51.32323
2022-11-05T07:09:10.806Z,52.49091
2022-11-05T07:14:12.475Z,52.53701
2022-11-05T07:19:14.406Z,53.73524
2022-11-05T07:24:15.977Z,52.94987
2022-11-05T07:29:17.595Z,54.22393
2022-11-05T07:34:19.737Z,51.39566
2022-11-05T07:39:21.818Z,52.19381
2022-11-05T07:44:23.884Z,55.34529
2022-11-05T07:49:25.883Z,52.00249
2022-11-05T07:54:27.651Z,52.02695
2022-11-05T07:59:29.747Z,52.69386
2022-11-05T08:04:31.996Z,51.60605
2022-11-05T08:09:34.063Z,53.45087
2022-11-05T08:14:35.948Z,52.218
2022-11-05T08:19:38.454Z,52.05914
2022-11-05T08:24:40.508Z,51.76592
2022-11-05T08:29:42.393Z,57.03359
2022-11-05T08:34:44.608Z,51.57721
2022-11-05T08:39:46.579Z,51.67381
2022-11-05T08:44:48.045Z,49.01931
2022-11-05T08:49:50.448Z,51.6908
2022-11-05T08:54:52.402Z,51.2327
2022-11-05T08:59:54.389Z,51.28238
2022-11-05T09:04:56.289Z,53.99661
2022-11-05T09:09:58.057Z,52.40456
2022-11-05T09:14:59.738Z,50.73511
2022-11-05T09:35:33.034Z,52.9916
